< Typhoon 200007 2000 Season Typhoon 200009 >
Typhoon 200008 (JELAWAT)
General InformationTrack Information on Google MapsDetailed Wind InformationList of All Images || Disaster Info.ResourceGoogle EarthGE AnimationAtom FeedGeoJSON
Detalied Best Track (Time Zone = UTC)
Year Month Day Hour Lat. Long. Pressure (hPa) Wind (kt) Class Image Chart
2000 7 31 18 22.0 154.4 1008 0 2 Image Chart
2000 8 1 00 22.0 153.0 1004 0 2 Image Chart
2000 8 1 06 22.0 152.0 1000 0 2 Image Chart
2000 8 1 12 22.0 151.2 996 35 3 Image Chart
2000 8 1 18 22.0 150.2 985 45 3 Image Chart
2000 8 2 00 22.1 149.4 970 65 5 Image Chart
2000 8 2 06 22.3 148.6 960 75 5 Image Chart
2000 8 2 12 22.5 147.7 955 75 5 Image Chart
2000 8 2 18 23.1 146.6 945 80 5 Image Chart
2000 8 3 00 23.6 145.5 940 85 5 Image Chart
2000 8 3 06 24.4 144.4 940 85 5 Image Chart
2000 8 3 12 24.9 143.0 940 85 5 Image Chart
2000 8 3 15 25.1 142.2 940 85 5 Image Chart
2000 8 3 18 25.2 141.6 945 85 5 Image Chart
2000 8 3 21 25.5 141.0 945 85 5 Image Chart
2000 8 4 00 25.6 140.4 950 80 5 Image Chart
2000 8 4 06 26.1 139.1 950 80 5 Image Chart
2000 8 4 12 26.1 137.7 950 80 5 Image Chart
2000 8 4 18 26.1 136.4 950 80 5 Image Chart
2000 8 5 00 26.2 135.5 950 80 5 Image Chart
2000 8 5 06 26.2 134.5 950 80 5 Image Chart
2000 8 5 12 26.1 133.5 955 80 5 Image Chart
2000 8 5 15 26.1 133.1 955 80 5 Image Chart
2000 8 5 18 26.0 132.7 955 80 5 Image Chart
2000 8 5 21 26.0 132.3 955 80 5 Image Chart
2000 8 6 00 26.0 132.0 960 80 5 Image Chart
2000 8 6 03 26.0 131.6 960 80 5 Image Chart
2000 8 6 06 26.0 131.1 960 80 5 Image Chart
2000 8 6 09 26.0 130.8 960 80 5 Image Chart
2000 8 6 12 26.0 130.5 960 80 5 Image Chart
2000 8 6 15 25.9 130.2 960 80 5 Image Chart
2000 8 6 18 25.9 129.9 960 80 5 Image Chart
2000 8 6 21 25.9 129.7 960 80 5 Image Chart
2000 8 7 00 26.0 129.6 960 80 5 Image Chart
2000 8 7 03 26.0 129.4 960 80 5 Image Chart
2000 8 7 06 26.2 129.2 960 80 5 Image Chart
2000 8 7 09 26.3 129.0 960 80 5 Image Chart
2000 8 7 12 26.5 128.8 965 75 5 Image Chart
2000 8 7 15 26.6 128.5 965 75 5 Image Chart
2000 8 7 18 26.8 128.4 965 75 5 Image Chart
2000 8 7 21 27.0 128.2 965 75 5 Image Chart
2000 8 8 00 27.3 128.1 965 75 5 Image Chart
2000 8 8 03 27.6 127.9 965 75 5 Image Chart
2000 8 8 06 27.8 127.7 965 75 5 Image Chart
2000 8 8 09 28.0 127.6 965 75 5 Image Chart
2000 8 8 12 28.0 127.4 965 75 5 Image Chart
2000 8 8 18 28.2 127.0 965 70 5 Image Chart
2000 8 9 00 28.5 126.5 965 70 5 Image Chart
2000 8 9 06 28.8 125.8 965 70 5 Image Chart
2000 8 9 12 28.8 125.0 970 70 5 Image Chart
2000 8 9 18 28.8 124.3 970 70 5 Image Chart
2000 8 10 00 29.1 123.7 970 65 5 Image Chart
2000 8 10 06 29.1 122.8 980 50 4 Image Chart
2000 8 10 12 29.3 121.8 985 40 3 Image Chart
2000 8 10 18 29.8 121.0 994 0 2 Image Chart
2000 8 11 00 30.7 120.5 998 0 2 Image Chart
2000 8 11 06 30.7 119.4 998 0 2 Image Chart
2000 8 11 12 30.4 118.1 1000 0 2 Image Chart
2000 8 11 18 30.2 117.3 1000 0 2 Image Chart
2000 8 12 00 30.7 116.6 1002 0 2 Image Chart
2000 8 12 06 30.8 115.9 1002 0 2 Image Chart
2000 8 12 12 30.6 115.3 1002 0 2 Image Chart
Japan Meteorological Agency Best Track Data | Correction Date : 2001-12-21
< Typhoon 200007 2000 Season Typhoon 200009 >

Help